Date,TemperatureHighF,TemperatureAvgF,TemperatureLowF,DewpointHighF,DewpointAvgF,DewpointLowF,HumidityHigh,HumidityAvg,HumidityLow,PressureMaxIn,PressureMinIn,WindSpeedMaxMPH,WindSpeedAvgMPH,GustSpeedMaxMPH,PrecipitationSumIn
2013-2-1,76.8,60.7,48.7,39.6,34.8,29.3,59,40,19,32.54,32.32,15,0,15,0.00
2013-2-2,76.8,62.6,53.2,45.1,36.4,27.1,62,39,19,32.56,32.48,2,0,2,0.00
2013-2-3,73.4,59.1,50.2,49.1,44.3,35.8,90,61,27,32.51,32.37,7,0,7,0.00
2013-2-4,78.3,59.3,46.4,48.0,42.0,21.7,85,57,23,32.57,32.33,24,0,24,0.00
2013-2-5,69.1,54.3,45.9,50.4,45.3,17.6,99,74,25,32.60,32.30,2,0,2,0.00
2013-2-6,64.2,51.2,44.1,48.7,45.8,42.3,99,83,51,32.43,32.32,3,0,3,0.00
2013-2-7,70.9,51.6,40.3,48.6,43.2,36.7,99,76,35,32.45,32.30,4,0,4,0.00
2013-2-8,45.1,36.3,33.1,42.3,35.4,32.7,99,96,87,32.32,32.19,8,1,8,0.00
2013-2-10,47.1,46.6,46.2,36.3,36.0,35.8,67,66,65,32.34,32.34,0,0,0,0.00
2013-2-13,57.6,49.8,45.0,35.4,34.1,32.7,67,55,41,32.49,32.47,1,0,1,0.00
2013-2-14,76.6,58.3,42.8,34.7,27.8,15.3,68,35,15,32.52,32.42,17,0,17,0.00
2013-2-15,77.7,61.1,48.6,31.1,23.5,17.6,38,24,14,32.58,32.49,12,0,12,0.00
2013-2-16,77.2,59.7,46.8,28.6,20.4,14.0,29,22,15,32.56,32.35,10,0,10,0.00
2013-2-17,71.4,55.3,43.7,41.2,26.9,17.8,83,38,16,32.36,32.26,2,0,2,0.00
2013-2-18,69.1,50.3,38.1,45.3,38.9,32.0,98,68,33,32.38,32.28,1,0,1,0.00
2013-2-19,47.7,42.6,34.7,43.7,40.8,33.8,99,94,72,32.29,32.03,3,0,3,0.00
2013-2-20,52.7,39.5,33.1,38.1,34.3,31.5,99,84,49,32.15,31.98,17,2,17,0.00
2013-2-21,61.9,47.0,37.0,39.9,33.3,27.7,81,61,33,32.40,32.28,6,0,6,0.00
2013-2-22,66.6,48.2,35.1,37.9,30.0,21.2,89,55,20,32.49,32.41,4,0,4,0.00
2013-2-23,64.2,50.2,38.5,40.6,32.4,23.7,83,55,24,32.49,32.24,7,1,7,0.00
2013-2-24,63.9,50.0,39.6,34.7,17.9,7.5,75,31,20,32.52,32.31,17,1,17,0.00
2013-2-25,70.7,53.1,37.8,22.8,17.0,8.8,38,25,16,32.54,32.40,24,0,24,0.00
2013-2-26,68.0,59.8,47.8,25.5,21.6,15.3,41,24,17,32.45,32.33,4,1,4,0.00
2013-2-27,68.5,59.6,49.3,22.6,19.4,13.6,24,21,17,32.56,32.48,3,1,3,0.00
2013-2-28,75.4,62.8,45.7,28.4,21.2,10.9,26,20,14,32.67,32.59,14,0,14,0.00